createdAt,value
2023-06-11T00:00:08.644Z,0.00
2023-06-11T00:01:08.607Z,0.00
2023-06-11T00:02:08.607Z,0.00
2023-06-11T00:03:08.791Z,0.00
2023-06-11T00:04:08.693Z,0.00
2023-06-11T00:05:08.828Z,0.00
2023-06-11T00:06:08.572Z,0.00
2023-06-11T00:07:08.559Z,0.00
2023-06-11T00:08:09.557Z,0.00
2023-06-11T00:09:08.576Z,0.00
2023-06-11T00:10:08.593Z,0.00
2023-06-11T00:11:08.528Z,0.00
2023-06-11T00:12:08.558Z,0.00
2023-06-11T00:13:08.514Z,0.00
2023-06-11T00:14:08.543Z,0.00
2023-06-11T00:15:08.760Z,0.00
2023-06-11T00:16:08.509Z,0.00
2023-06-11T00:17:08.500Z,0.00
2023-06-11T00:18:08.574Z,0.00
2023-06-11T00:19:08.504Z,0.00
2023-06-11T00:20:08.466Z,0.00
2023-06-11T00:21:08.466Z,0.00
2023-06-11T00:22:08.445Z,0.00
2023-06-11T00:23:08.468Z,0.00
2023-06-11T00:24:08.504Z,0.00
2023-06-11T00:25:08.679Z,0.00
2023-06-11T00:26:08.441Z,0.00
2023-06-11T00:27:08.407Z,0.00
2023-06-11T00:28:08.432Z,0.00
2023-06-11T00:29:08.422Z,0.00
2023-06-11T00:30:08.391Z,0.00
2023-06-11T00:31:08.414Z,0.00
2023-06-11T00:32:08.458Z,0.00
2023-06-11T00:33:08.494Z,0.00
2023-06-11T00:34:08.368Z,0.00
2023-06-11T00:35:08.926Z,0.00
2023-06-11T00:36:08.345Z,0.00
2023-06-11T00:37:08.338Z,0.00
2023-06-11T00:38:08.335Z,0.00
2023-06-11T00:39:08.329Z,0.00
2023-06-11T00:40:08.309Z,0.00
2023-06-11T00:41:08.295Z,0.00
2023-06-11T00:42:08.306Z,0.00
2023-06-11T00:43:08.298Z,0.00
2023-06-11T00:44:08.264Z,0.00
2023-06-11T00:45:08.364Z,0.00
2023-06-11T00:46:08.333Z,0.00
2023-06-11T00:47:08.264Z,0.00
2023-06-11T00:48:08.307Z,0.00
2023-06-11T00:49:08.234Z,0.00
2023-06-11T00:50:08.223Z,0.00
2023-06-11T00:51:08.208Z,0.00
2023-06-11T00:52:08.229Z,0.00
2023-06-11T00:53:08.196Z,0.00
2023-06-11T00:54:08.179Z,0.00
2023-06-11T00:55:08.300Z,0.00
2023-06-11T00:56:08.187Z,0.00
2023-06-11T00:57:09.192Z,0.00
2023-06-11T00:58:08.200Z,0.00
2023-06-11T00:59:08.149Z,0.00
2023-06-11T01:00:08.163Z,0.00
2023-06-11T01:01:08.225Z,0.00
2023-06-11T01:02:08.136Z,0.00
2023-06-11T01:03:08.147Z,0.00
2023-06-11T01:04:08.217Z,0.00
2023-06-11T01:05:08.206Z,0.00
2023-06-11T01:06:08.130Z,0.00
2023-06-11T01:07:08.073Z,0.00
2023-06-11T01:08:08.072Z,0.00
2023-06-11T01:09:08.062Z,0.00
2023-06-11T01:10:08.060Z,0.00
2023-06-11T01:11:11.051Z,0.00
2023-06-11T01:12:09.036Z,0.00
2023-06-11T01:13:08.032Z,0.00
2023-06-11T01:14:08.036Z,0.00
2023-06-11T01:15:08.081Z,0.00
2023-06-11T01:16:08.031Z,0.00
2023-06-11T01:17:08.094Z,0.00
2023-06-11T01:18:08.081Z,0.00
2023-06-11T01:19:07.982Z,0.00
2023-06-11T01:20:08.006Z,0.00
2023-06-11T01:21:07.971Z,0.00
2023-06-11T01:22:07.959Z,0.00
2023-06-11T01:23:07.953Z,0.00
2023-06-11T01:24:07.997Z,0.00
2023-06-11T01:25:08.181Z,0.00
2023-06-11T01:26:07.920Z,0.00
2023-06-11T01:27:07.919Z,0.00
2023-06-11T01:28:07.921Z,0.00
2023-06-11T01:29:07.926Z,0.00
2023-06-11T01:30:07.928Z,0.00
2023-06-11T01:31:07.910Z,0.00
2023-06-11T01:32:07.893Z,0.00
2023-06-11T01:33:07.904Z,0.00
2023-06-11T01:34:07.891Z,0.00
2023-06-11T01:35:08.251Z,0.00
2023-06-11T01:36:07.850Z,0.00
2023-06-11T01:37:07.842Z,0.00
2023-06-11T01:38:07.830Z,0.00
2023-06-11T01:39:07.865Z,0.00
2023-06-11T01:40:07.825Z,0.00
2023-06-11T01:41:07.806Z,0.00
2023-06-11T01:42:07.804Z,0.00
2023-06-11T01:43:07.824Z,0.00
2023-06-11T01:44:07.817Z,0.00
2023-06-11T01:45:07.856Z,0.00
2023-06-11T01:46:07.820Z,0.00
2023-06-11T01:47:07.756Z,0.00
2023-06-11T01:48:07.815Z,0.00
2023-06-11T01:49:07.775Z,0.00
2023-06-11T01:50:07.808Z,0.00
2023-06-11T01:51:07.732Z,0.00
2023-06-11T01:52:07.721Z,0.00
2023-06-11T01:53:07.744Z,0.00
2023-06-11T01:54:07.726Z,0.00
2023-06-11T01:55:07.956Z,0.00
2023-06-11T01:56:07.691Z,0.00
2023-06-11T01:57:07.682Z,0.00
2023-06-11T01:58:07.710Z,0.00
2023-06-11T01:59:07.695Z,0.00
2023-06-11T02:00:07.659Z,0.00
2023-06-11T02:01:07.651Z,0.00
2023-06-11T02:02:07.697Z,0.00
2023-06-11T02:03:07.692Z,0.00
2023-06-11T02:04:07.786Z,0.00
2023-06-11T02:05:07.726Z,0.00
2023-06-11T02:06:07.617Z,0.00
2023-06-11T02:07:07.650Z,0.00
2023-06-11T02:08:08.605Z,0.00
2023-06-11T02:09:07.600Z,0.00
2023-06-11T02:10:07.583Z,0.00
2023-06-11T02:11:07.588Z,0.00
2023-06-11T02:12:07.610Z,0.00
2023-06-11T02:13:07.562Z,0.00
2023-06-11T02:14:07.560Z,0.00
2023-06-11T02:15:07.628Z,0.00
2023-06-11T02:16:07.555Z,0.00
2023-06-11T02:17:07.561Z,0.00
2023-06-11T02:18:07.624Z,0.00
2023-06-11T02:19:07.509Z,0.00
2023-06-11T02:20:07.542Z,0.00
2023-06-11T02:21:07.504Z,0.00
2023-06-11T02:22:07.523Z,0.00
2023-06-11T02:23:07.491Z,0.00
2023-06-11T02:24:07.505Z,0.00
2023-06-11T02:25:07.488Z,0.00
2023-06-11T02:26:07.473Z,0.00
2023-06-11T02:27:07.480Z,0.00
2023-06-11T02:28:07.473Z,0.00
2023-06-11T02:29:07.444Z,0.00
2023-06-11T02:30:07.443Z,0.00
2023-06-11T02:31:07.447Z,0.00
2023-06-11T02:32:07.541Z,0.00
2023-06-11T02:33:07.514Z,0.00
2023-06-11T02:34:07.407Z,0.00
2023-06-11T02:35:07.403Z,0.00
2023-06-11T02:36:07.405Z,0.00
2023-06-11T02:37:07.380Z,0.00
2023-06-11T02:38:07.393Z,0.00
2023-06-11T02:39:07.362Z,0.00
2023-06-11T02:40:07.373Z,0.00
2023-06-11T02:41:07.378Z,0.00
2023-06-11T02:42:07.334Z,0.00
2023-06-11T02:43:07.332Z,0.00
2023-06-11T02:44:07.323Z,0.00
2023-06-11T02:45:07.437Z,0.00
2023-06-11T02:46:07.419Z,0.00
2023-06-11T02:47:07.322Z,0.00
2023-06-11T02:48:07.364Z,0.00
2023-06-11T02:49:07.294Z,0.00
2023-06-11T02:50:07.280Z,0.00
2023-06-11T02:51:07.305Z,0.00
2023-06-11T02:52:07.267Z,0.00
2023-06-11T02:53:07.270Z,5.62
2023-06-11T02:54:07.237Z,5.62
2023-06-11T02:55:07.265Z,5.62
2023-06-11T02:56:07.255Z,5.62
2023-06-11T02:57:07.222Z,5.62
2023-06-11T02:58:07.217Z,5.62
2023-06-11T02:59:07.209Z,5.62
2023-06-11T03:00:07.251Z,11.25
2023-06-11T03:01:07.223Z,11.25
2023-06-11T03:02:07.189Z,11.25
2023-06-11T03:03:07.291Z,11.25
2023-06-11T03:04:07.273Z,11.25
2023-06-11T03:05:07.189Z,11.25
2023-06-11T03:06:07.159Z,16.88
2023-06-11T03:07:07.142Z,16.88
2023-06-11T03:08:07.137Z,16.88
2023-06-11T03:09:07.164Z,16.88
2023-06-11T03:10:07.156Z,22.50
2023-06-11T03:11:07.112Z,22.50
2023-06-11T03:12:07.100Z,22.50
2023-06-11T03:13:07.095Z,28.12
2023-06-11T03:14:07.110Z,28.12
2023-06-11T03:15:07.092Z,28.12
2023-06-11T03:16:07.106Z,33.75
2023-06-11T03:17:07.063Z,33.75
2023-06-11T03:18:07.122Z,39.38
2023-06-11T03:19:07.080Z,39.38
2023-06-11T03:20:07.047Z,45.00
2023-06-11T03:21:07.029Z,45.00
2023-06-11T03:22:07.021Z,50.62
2023-06-11T03:23:07.041Z,50.62
2023-06-11T03:24:07.063Z,56.25
2023-06-11T03:25:06.999Z,56.25
2023-06-11T03:26:06.991Z,61.88
2023-06-11T03:27:07.002Z,67.50
2023-06-11T03:28:07.000Z,84.38
2023-06-11T03:29:06.977Z,95.62
2023-06-11T03:30:06.966Z,106.88
2023-06-11T03:31:07.039Z,118.12
2023-06-11T03:32:06.943Z,129.38
2023-06-11T03:33:06.997Z,135.00
2023-06-11T03:34:06.928Z,146.25
2023-06-11T03:35:06.920Z,140.62
2023-06-11T03:36:06.910Z,146.25
2023-06-11T03:37:06.905Z,163.12
2023-06-11T03:38:06.921Z,185.62
2023-06-11T03:39:06.891Z,191.25
2023-06-11T03:40:06.892Z,202.50
2023-06-11T03:41:06.873Z,213.75
2023-06-11T03:42:06.898Z,225.00
2023-06-11T03:43:06.886Z,241.88
2023-06-11T03:44:06.874Z,258.75
2023-06-11T03:45:06.839Z,275.62
2023-06-11T03:46:06.834Z,281.25
2023-06-11T03:47:06.990Z,286.88
2023-06-11T03:48:06.847Z,309.38
2023-06-11T03:49:06.809Z,331.88
2023-06-11T03:50:06.799Z,348.75
2023-06-11T03:51:06.787Z,371.25
2023-06-11T03:52:06.813Z,393.75
2023-06-11T03:53:06.786Z,405.00
2023-06-11T03:54:06.769Z,416.25
2023-06-11T03:55:06.758Z,438.75
2023-06-11T03:56:06.775Z,455.62
2023-06-11T03:57:06.768Z,489.38
2023-06-11T03:58:06.727Z,517.50
2023-06-11T03:59:07.735Z,523.12
2023-06-11T04:00:06.716Z,528.75
2023-06-11T04:01:06.744Z,551.25
2023-06-11T04:02:06.718Z,562.50
2023-06-11T04:03:06.893Z,579.38
2023-06-11T04:04:06.748Z,613.12
2023-06-11T04:05:06.674Z,675.00
2023-06-11T04:06:07.698Z,714.38
2023-06-11T04:07:06.689Z,736.88
2023-06-11T04:08:06.674Z,765.00
2023-06-11T04:09:06.645Z,776.25
2023-06-11T04:10:06.663Z,804.38
2023-06-11T04:11:06.735Z,826.88
2023-06-11T04:12:06.619Z,843.75
2023-06-11T04:13:06.613Z,888.75
2023-06-11T04:14:06.617Z,922.50
2023-06-11T04:15:06.623Z,961.88
2023-06-11T04:16:07.419Z,978.75
2023-06-11T04:17:07.593Z,1001.25
2023-06-11T04:18:06.640Z,1029.38
2023-06-11T04:19:06.566Z,1068.75
2023-06-11T04:20:06.587Z,1108.12
2023-06-11T04:21:06.547Z,1130.62
2023-06-11T04:22:06.547Z,1170.00
2023-06-11T04:23:06.532Z,1198.12
2023-06-11T04:24:09.256Z,1237.50
2023-06-11T04:25:07.552Z,1276.88
2023-06-11T04:26:06.510Z,1276.88
2023-06-11T04:27:06.503Z,1316.25
2023-06-11T04:28:06.499Z,1378.12
2023-06-11T04:29:06.511Z,1406.25
2023-06-11T04:30:06.490Z,1423.12
2023-06-11T04:31:06.483Z,1434.38
2023-06-11T04:32:06.461Z,1434.38
2023-06-11T04:33:06.488Z,1451.25
2023-06-11T04:34:06.468Z,1473.75
2023-06-11T04:35:06.441Z,1513.12
2023-06-11T04:36:06.424Z,1552.50
2023-06-11T04:37:06.421Z,1575.00
2023-06-11T04:38:06.443Z,1586.25
2023-06-11T04:39:06.428Z,1597.50
2023-06-11T04:40:06.401Z,1614.38
2023-06-11T04:41:06.413Z,1648.12
2023-06-11T04:42:06.392Z,1653.75
2023-06-11T04:43:06.398Z,1642.50
2023-06-11T04:44:06.396Z,1670.62
2023-06-11T04:45:06.356Z,1721.25
2023-06-11T04:46:06.416Z,1755.00
2023-06-11T04:47:06.436Z,1726.88
2023-06-11T04:48:38.274Z,1732.50
2023-06-11T04:49:06.329Z,1794.38
2023-06-11T04:50:06.356Z,1816.88
2023-06-11T04:51:06.313Z,1873.12
2023-06-11T04:52:06.319Z,1918.12
2023-06-11T04:53:06.339Z,1951.88
2023-06-11T04:54:06.300Z,1963.12
2023-06-11T04:55:06.294Z,1991.25
2023-06-11T04:56:06.320Z,2002.50
2023-06-11T04:57:06.278Z,2008.12
2023-06-11T04:58:06.293Z,2025.00
2023-06-11T04:59:06.268Z,2008.12
2023-06-11T05:00:06.260Z,2008.12
2023-06-11T05:01:06.263Z,1985.62
2023-06-11T05:02:06.283Z,1940.62
2023-06-11T05:03:06.284Z,1985.62
2023-06-11T05:04:06.251Z,2064.38
2023-06-11T05:05:06.237Z,2092.50
2023-06-11T05:06:06.239Z,2086.88
2023-06-11T05:07:06.253Z,2137.50
2023-06-11T05:08:06.281Z,2160.00
2023-06-11T05:09:06.214Z,2160.00
2023-06-11T05:10:06.193Z,2216.25
2023-06-11T05:11:06.184Z,2210.62
2023-06-11T05:12:06.200Z,2238.75
2023-06-11T05:13:06.177Z,2272.50
2023-06-11T05:14:06.169Z,2283.75
2023-06-11T05:15:06.167Z,2334.38
2023-06-11T05:16:06.170Z,2311.88
2023-06-11T05:17:06.185Z,2334.38
2023-06-11T05:18:06.196Z,2283.75
2023-06-11T05:19:06.132Z,2250.00
2023-06-11T05:20:06.126Z,2160.00
2023-06-11T05:21:06.171Z,2390.62
2023-06-11T05:22:06.107Z,2362.50
2023-06-11T05:23:06.099Z,2469.38
2023-06-11T05:24:06.126Z,2480.62
2023-06-11T05:25:06.093Z,2536.88
2023-06-11T05:26:06.095Z,2503.12
2023-06-11T05:27:07.071Z,2503.12
2023-06-11T05:28:06.064Z,2548.12
2023-06-11T05:29:06.057Z,2520.00
2023-06-11T05:30:06.089Z,2520.00
2023-06-11T05:31:06.064Z,2514.38
2023-06-11T05:32:06.058Z,2525.62
2023-06-11T05:33:06.053Z,2548.12
2023-06-11T05:34:06.022Z,2587.50
2023-06-11T05:35:06.064Z,2553.75
2023-06-11T05:36:06.007Z,2536.88
2023-06-11T05:37:06.008Z,2520.00
2023-06-11T05:38:05.992Z,2576.25
2023-06-11T05:39:05.991Z,2598.75
2023-06-11T05:40:06.005Z,2604.38
2023-06-11T05:41:05.969Z,2548.12
2023-06-11T05:42:05.962Z,2491.88
2023-06-11T05:43:05.975Z,2548.12
2023-06-11T05:44:05.959Z,2593.12
2023-06-11T05:45:05.966Z,2581.88
2023-06-11T05:46:05.994Z,2643.75
2023-06-11T05:47:05.970Z,2638.12
2023-06-11T05:48:05.961Z,2604.38
2023-06-11T05:49:05.941Z,2610.00
2023-06-11T05:50:05.948Z,2615.62
2023-06-11T05:51:05.918Z,2598.75
2023-06-11T05:52:05.897Z,2615.62
2023-06-11T05:53:05.889Z,2660.62
2023-06-11T05:54:05.907Z,2700.00
2023-06-11T05:55:05.875Z,2700.00
2023-06-11T05:56:05.873Z,2739.38
2023-06-11T05:57:05.861Z,2722.50
2023-06-11T05:58:05.856Z,2716.88
2023-06-11T05:59:05.880Z,2705.62
2023-06-11T06:00:05.912Z,2683.12
2023-06-11T06:01:05.837Z,2722.50
2023-06-11T06:02:05.886Z,2767.50
2023-06-11T06:03:06.058Z,2733.75
2023-06-11T06:04:05.994Z,2733.75
2023-06-11T06:05:05.826Z,2739.38
2023-06-11T06:06:05.810Z,2784.38
2023-06-11T06:07:05.800Z,2739.38
2023-06-11T06:08:05.812Z,2694.38
2023-06-11T06:09:05.819Z,2716.88
2023-06-11T06:10:05.788Z,2756.25
2023-06-11T06:11:05.776Z,2784.38
2023-06-11T06:12:05.767Z,2733.75
2023-06-11T06:13:05.790Z,2716.88
2023-06-11T06:14:05.754Z,2761.88
2023-06-11T06:15:05.749Z,2773.12
2023-06-11T06:16:05.753Z,2778.75
2023-06-11T06:17:05.744Z,2806.88
2023-06-11T06:18:05.875Z,2778.75
2023-06-11T06:19:05.721Z,2750.62
2023-06-11T06:20:05.717Z,2801.25
2023-06-11T06:21:05.712Z,2829.38
2023-06-11T06:22:05.703Z,2818.12
2023-06-11T06:23:05.733Z,2806.88
2023-06-11T06:24:05.734Z,2812.50
2023-06-11T06:25:05.690Z,2885.62
2023-06-11T06:26:05.681Z,2863.12
2023-06-11T06:27:05.729Z,2851.88
2023-06-11T06:28:05.695Z,2840.62
2023-06-11T06:29:05.664Z,2840.62
2023-06-11T06:30:05.660Z,2880.00
2023-06-11T06:31:05.651Z,2863.12
2023-06-11T06:32:05.707Z,2885.62
2023-06-11T06:33:05.668Z,2925.00
2023-06-11T06:34:05.640Z,2896.88
2023-06-11T06:35:05.633Z,2891.25
2023-06-11T06:36:05.630Z,2880.00
2023-06-11T06:37:05.662Z,2902.50
2023-06-11T06:38:05.619Z,2908.12
2023-06-11T06:39:05.613Z,2880.00
2023-06-11T06:40:05.623Z,2891.25
2023-06-11T06:41:05.619Z,2947.50
2023-06-11T06:42:05.618Z,2947.50
2023-06-11T06:43:05.599Z,2930.62
2023-06-11T06:44:05.613Z,2913.75
2023-06-11T06:45:05.570Z,2874.38
2023-06-11T06:46:05.601Z,2941.88
2023-06-11T06:47:05.562Z,2941.88
2023-06-11T06:48:05.601Z,2941.88
2023-06-11T06:49:05.603Z,2953.12
2023-06-11T06:50:05.556Z,2947.50
2023-06-11T06:51:05.559Z,2919.38
2023-06-11T06:52:05.528Z,2896.88
2023-06-11T06:53:05.538Z,2919.38
2023-06-11T06:54:05.519Z,2863.12
2023-06-11T06:55:05.509Z,2874.38
2023-06-11T06:56:05.528Z,2941.88
2023-06-11T06:57:05.505Z,2958.75
2023-06-11T06:58:05.495Z,2941.88
2023-06-11T06:59:05.483Z,2930.62
2023-06-11T07:00:05.521Z,2964.38
2023-06-11T07:01:05.529Z,2958.75
2023-06-11T07:02:08.717Z,2936.25
2023-06-11T07:03:05.513Z,2941.88
2023-06-11T07:04:05.458Z,2930.62
2023-06-11T07:05:05.502Z,2925.00
2023-06-11T07:06:05.509Z,2902.50
2023-06-11T07:07:05.444Z,2885.62
2023-06-11T07:08:05.430Z,2913.75
2023-06-11T07:09:05.427Z,2919.38
2023-06-11T07:10:05.444Z,2885.62
2023-06-11T07:11:05.414Z,2880.00
2023-06-11T07:12:05.398Z,2919.38
2023-06-11T07:13:05.403Z,2941.88
2023-06-11T07:14:05.418Z,2958.75
2023-06-11T07:15:05.423Z,2936.25
2023-06-11T07:16:05.402Z,2936.25
2023-06-11T07:17:05.385Z,2913.75
2023-06-11T07:18:05.426Z,2902.50
2023-06-11T07:19:05.402Z,2930.62
2023-06-11T07:20:05.393Z,2930.62
2023-06-11T07:21:05.363Z,2970.00
2023-06-11T07:22:05.342Z,2986.88
2023-06-11T07:23:05.341Z,2958.75
2023-06-11T07:24:05.386Z,2919.38
2023-06-11T07:25:05.337Z,2930.62
2023-06-11T07:26:05.323Z,2863.12
2023-06-11T07:27:05.310Z,2818.12
2023-06-11T07:28:05.349Z,2846.25
2023-06-11T07:29:05.308Z,2891.25
2023-06-11T07:30:06.292Z,2930.62
2023-06-11T07:31:05.366Z,2970.00
2023-06-11T07:32:05.276Z,3003.75
2023-06-11T07:33:05.362Z,3020.62
2023-06-11T07:34:05.258Z,3026.25
2023-06-11T07:35:05.254Z,3043.12
2023-06-11T07:36:05.242Z,3060.00
2023-06-11T07:37:05.235Z,3060.00
2023-06-11T07:38:05.252Z,3076.88
2023-06-11T07:39:05.223Z,3082.50
2023-06-11T07:40:05.218Z,3121.88
2023-06-11T07:41:05.212Z,3116.25
2023-06-11T07:42:05.232Z,3060.00
2023-06-11T07:43:05.246Z,3031.88
2023-06-11T07:44:05.192Z,2998.12
2023-06-11T07:45:05.183Z,2970.00
2023-06-11T07:46:05.217Z,3003.75
2023-06-11T07:47:05.252Z,3020.62
2023-06-11T07:48:05.240Z,3037.50
2023-06-11T07:49:05.157Z,3048.75
2023-06-11T07:50:05.165Z,3054.38
2023-06-11T07:51:05.149Z,3048.75
2023-06-11T07:52:05.169Z,3031.88
2023-06-11T07:53:05.135Z,3003.75
2023-06-11T07:54:05.134Z,2970.00
2023-06-11T07:55:05.126Z,2880.00
2023-06-11T07:56:05.145Z,2902.50
2023-06-11T07:57:05.135Z,2986.88
2023-06-11T07:58:05.098Z,3003.75
2023-06-11T07:59:05.092Z,3003.75
2023-06-11T08:00:05.085Z,3020.62
2023-06-11T08:01:05.108Z,3031.88
2023-06-11T08:02:05.105Z,3043.12
2023-06-11T08:03:05.166Z,3020.62
2023-06-11T08:04:05.067Z,3088.12
2023-06-11T08:05:05.048Z,3116.25
2023-06-11T08:06:05.088Z,3093.75
2023-06-11T08:07:05.035Z,3043.12
2023-06-11T08:08:05.023Z,3009.38
2023-06-11T08:09:05.019Z,3048.75
2023-06-11T08:10:05.055Z,3037.50
2023-06-11T08:11:05.037Z,3037.50
2023-06-11T08:12:05.995Z,3065.62
2023-06-11T08:13:04.990Z,3099.38
2023-06-11T08:14:04.985Z,3071.25
2023-06-11T08:15:05.012Z,3105.00
2023-06-11T08:16:04.983Z,3099.38
2023-06-11T08:17:05.012Z,3071.25
2023-06-11T08:18:04.978Z,3099.38
2023-06-11T08:19:04.952Z,3110.62
2023-06-11T08:20:04.968Z,3150.00
2023-06-11T08:21:04.940Z,3211.88
2023-06-11T08:22:04.929Z,3262.50
2023-06-11T08:23:04.938Z,3228.75
2023-06-11T08:24:05.021Z,3138.75
2023-06-11T08:25:04.947Z,2936.25
2023-06-11T08:26:04.921Z,2581.88
2023-06-11T08:27:04.899Z,2283.75
2023-06-11T08:28:04.887Z,2491.88
2023-06-11T08:29:04.907Z,2778.75
2023-06-11T08:30:04.871Z,2598.75
2023-06-11T08:31:04.869Z,2446.88
2023-06-11T08:32:04.882Z,2683.12
2023-06-11T08:33:04.878Z,2722.50
2023-06-11T08:34:04.868Z,2761.88
2023-06-11T08:35:04.837Z,2829.38
2023-06-11T08:36:04.848Z,2773.12
2023-06-11T08:37:04.823Z,2711.25
2023-06-11T08:38:04.815Z,2655.00
2023-06-11T08:39:04.842Z,2570.62
2023-06-11T08:40:04.803Z,2446.88
2023-06-11T08:41:04.799Z,2193.75
2023-06-11T08:42:04.797Z,1783.12
2023-06-11T08:43:04.813Z,1355.62
2023-06-11T08:44:04.805Z,1282.50
2023-06-11T08:45:04.768Z,1243.12
2023-06-11T08:46:04.806Z,1226.25
2023-06-11T08:47:04.759Z,1203.75
2023-06-11T08:48:04.853Z,1186.88
2023-06-11T08:49:04.766Z,1181.25
2023-06-11T08:50:04.745Z,1175.62
2023-06-11T08:51:04.731Z,1164.38
2023-06-11T08:52:04.734Z,1153.12
2023-06-11T08:53:04.745Z,1147.50
2023-06-11T08:54:04.707Z,1136.25
2023-06-11T08:55:04.703Z,1130.62
2023-06-11T08:56:04.697Z,1119.38
2023-06-11T08:57:04.690Z,1108.12
2023-06-11T08:58:04.701Z,1096.88
2023-06-11T08:59:04.671Z,1085.62
2023-06-11T09:00:04.666Z,1085.62
2023-06-11T09:01:04.659Z,1068.75
2023-06-11T09:02:04.757Z,1057.50
2023-06-11T09:03:04.738Z,1057.50
2023-06-11T09:04:04.648Z,1046.25
2023-06-11T09:05:04.628Z,1040.62
2023-06-11T09:06:04.618Z,1035.00
2023-06-11T09:07:04.953Z,1023.75
2023-06-11T09:08:04.651Z,1012.50
2023-06-11T09:09:04.601Z,1006.88
2023-06-11T09:10:04.623Z,1001.25
2023-06-11T09:11:04.591Z,990.00
2023-06-11T09:12:04.623Z,978.75
2023-06-11T09:13:04.578Z,956.25
2023-06-11T09:14:04.574Z,922.50
2023-06-11T09:15:04.594Z,894.38
2023-06-11T09:16:04.575Z,871.88
2023-06-11T09:17:04.574Z,843.75
2023-06-11T09:18:05.381Z,815.62
2023-06-11T09:19:04.534Z,781.88
2023-06-11T09:20:04.519Z,759.38
2023-06-11T09:21:04.579Z,742.50
2023-06-11T09:22:04.538Z,720.00
2023-06-11T09:23:04.514Z,703.12
2023-06-11T09:24:04.520Z,691.88
2023-06-11T09:25:04.488Z,680.62
2023-06-11T09:26:04.518Z,669.38
2023-06-11T09:27:04.479Z,658.12
2023-06-11T09:28:04.472Z,658.12
2023-06-11T09:29:04.463Z,646.88
2023-06-11T09:30:04.460Z,641.25
2023-06-11T09:31:04.480Z,630.00
2023-06-11T09:32:09.968Z,624.38
2023-06-11T09:33:05.486Z,613.12
2023-06-11T09:34:04.424Z,601.88
2023-06-11T09:35:04.443Z,590.62
2023-06-11T09:36:04.447Z,585.00
2023-06-11T09:37:04.403Z,568.12
2023-06-11T09:38:04.397Z,562.50
2023-06-11T09:39:04.384Z,556.88
2023-06-11T09:40:04.411Z,551.25
2023-06-11T09:41:04.371Z,545.62
2023-06-11T09:42:04.367Z,545.62
2023-06-11T09:43:04.366Z,545.62
2023-06-11T09:44:04.363Z,545.62
2023-06-11T09:45:04.368Z,540.00
2023-06-11T09:46:04.397Z,540.00
2023-06-11T09:47:04.328Z,540.00
2023-06-11T09:48:04.337Z,534.38
2023-06-11T09:49:04.340Z,534.38
2023-06-11T09:50:04.341Z,534.38
2023-06-11T09:51:04.291Z,534.38
2023-06-11T09:52:04.291Z,528.75
2023-06-11T09:53:04.277Z,528.75
2023-06-11T09:54:04.308Z,528.75
2023-06-11T09:55:04.284Z,523.12
2023-06-11T09:56:10.964Z,523.12
2023-06-11T09:57:06.269Z,523.12
2023-06-11T09:58:04.254Z,517.50
2023-06-11T09:59:04.275Z,517.50
2023-06-11T10:00:04.245Z,517.50
2023-06-11T10:01:07.211Z,511.88
2023-06-11T10:02:05.222Z,511.88
2023-06-11T10:03:04.321Z,511.88
2023-06-11T10:04:04.280Z,511.88
2023-06-11T10:05:04.208Z,511.88
2023-06-11T10:06:04.193Z,511.88
2023-06-11T10:07:04.191Z,511.88
2023-06-11T10:08:04.229Z,511.88
2023-06-11T10:09:04.174Z,506.25
2023-06-11T10:10:04.165Z,506.25
2023-06-11T10:11:04.187Z,506.25
2023-06-11T10:12:04.149Z,506.25
2023-06-11T10:13:04.180Z,506.25
2023-06-11T10:14:04.138Z,500.62
2023-06-11T10:15:04.128Z,500.62
2023-06-11T10:16:04.249Z,500.62
2023-06-11T10:17:04.117Z,500.62
2023-06-11T10:18:04.183Z,500.62
2023-06-11T10:19:04.108Z,500.62
2023-06-11T10:20:04.094Z,500.62
2023-06-11T10:21:04.088Z,500.62
2023-06-11T10:22:04.083Z,495.00
2023-06-11T10:23:06.332Z,483.75
2023-06-11T10:24:05.119Z,478.12
2023-06-11T10:25:04.064Z,478.12
2023-06-11T10:26:04.041Z,483.75
2023-06-11T10:27:04.092Z,489.38
2023-06-11T10:28:04.059Z,489.38
2023-06-11T10:29:06.345Z,495.00
2023-06-11T10:30:04.012Z,495.00
2023-06-11T10:31:04.016Z,500.62
2023-06-11T10:32:04.015Z,495.00
2023-06-11T10:33:04.160Z,483.75
2023-06-11T10:34:04.118Z,472.50
2023-06-11T10:35:04.141Z,500.62
2023-06-11T10:36:03.970Z,500.62
2023-06-11T10:37:03.983Z,433.12
2023-06-11T10:38:03.955Z,489.38
2023-06-11T10:39:03.942Z,478.12
2023-06-11T10:40:03.930Z,472.50
2023-06-11T10:41:03.999Z,360.00
2023-06-11T10:42:03.975Z,478.12
2023-06-11T10:43:03.904Z,466.88
2023-06-11T10:44:03.899Z,455.62
2023-06-11T10:45:03.880Z,450.00
2023-06-11T10:46:04.910Z,444.38
2023-06-11T10:47:04.087Z,354.38
2023-06-11T10:48:36.271Z,455.62
2023-06-11T10:49:03.861Z,455.62
2023-06-11T10:50:03.857Z,450.00
2023-06-11T10:51:03.892Z,444.38
2023-06-11T10:52:03.867Z,444.38
2023-06-11T10:53:03.891Z,444.38
2023-06-11T10:54:03.840Z,438.75
2023-06-11T10:55:03.826Z,438.75
2023-06-11T10:56:03.854Z,438.75
2023-06-11T10:57:03.838Z,438.75
2023-06-11T10:58:03.807Z,433.12
2023-06-11T10:59:03.791Z,433.12
2023-06-11T11:00:03.805Z,427.50
2023-06-11T11:01:03.801Z,427.50
2023-06-11T11:02:03.791Z,427.50
2023-06-11T11:03:03.817Z,427.50
2023-06-11T11:04:03.867Z,427.50
2023-06-11T11:05:03.770Z,427.50
2023-06-11T11:06:03.760Z,427.50
2023-06-11T11:07:03.721Z,427.50
2023-06-11T11:08:03.719Z,427.50
2023-06-11T11:09:03.712Z,427.50
2023-06-11T11:10:03.738Z,427.50
2023-06-11T11:11:03.712Z,427.50
2023-06-11T11:12:03.698Z,427.50
2023-06-11T11:13:03.685Z,421.88
2023-06-11T11:14:03.675Z,421.88
2023-06-11T11:15:03.690Z,421.88
2023-06-11T11:16:03.759Z,421.88
2023-06-11T11:17:03.705Z,416.25
2023-06-11T11:18:03.728Z,416.25
2023-06-11T11:19:03.633Z,416.25
2023-06-11T11:20:03.660Z,416.25
2023-06-11T11:21:03.624Z,416.25
2023-06-11T11:22:03.619Z,410.62
2023-06-11T11:23:03.608Z,410.62
2023-06-11T11:24:03.702Z,410.62
2023-06-11T11:25:03.612Z,410.62
2023-06-11T11:26:03.589Z,410.62
2023-06-11T11:27:03.582Z,405.00
2023-06-11T11:28:03.573Z,405.00
2023-06-11T11:29:03.577Z,405.00
2023-06-11T11:30:04.155Z,405.00
2023-06-11T11:31:04.543Z,405.00
2023-06-11T11:32:03.582Z,405.00
2023-06-11T11:33:03.647Z,405.00
2023-06-11T11:34:03.539Z,405.00
2023-06-11T11:35:03.516Z,405.00
2023-06-11T11:36:03.499Z,405.00
2023-06-11T11:37:03.497Z,405.00
2023-06-11T11:38:03.494Z,410.62
2023-06-11T11:39:03.506Z,405.00
2023-06-11T11:40:03.475Z,410.62
2023-06-11T11:41:03.474Z,410.62
2023-06-11T11:42:03.473Z,405.00
2023-06-11T11:43:03.488Z,405.00
2023-06-11T11:44:03.478Z,393.75
2023-06-11T11:45:03.432Z,393.75
2023-06-11T11:46:03.465Z,393.75
2023-06-11T11:47:03.435Z,388.12
2023-06-11T11:48:05.696Z,393.75
2023-06-11T11:49:04.412Z,393.75
2023-06-11T11:50:03.402Z,337.50
2023-06-11T11:51:03.395Z,393.75
2023-06-11T11:52:03.390Z,393.75
2023-06-11T11:53:03.401Z,388.12
2023-06-11T11:54:03.907Z,292.50
2023-06-11T11:55:04.358Z,388.12
2023-06-11T11:56:06.451Z,388.12
2023-06-11T11:57:04.371Z,388.12
2023-06-11T11:58:03.373Z,393.75
2023-06-11T11:59:03.325Z,388.12
2023-06-11T12:00:03.314Z,388.12
2023-06-11T12:01:03.315Z,388.12
2023-06-11T12:02:03.331Z,388.12
2023-06-11T12:03:03.401Z,393.75
2023-06-11T12:04:03.345Z,393.75
2023-06-11T12:05:03.280Z,388.12
2023-06-11T12:06:03.380Z,388.12
2023-06-11T12:07:03.338Z,388.12
2023-06-11T12:08:03.252Z,388.12
2023-06-11T12:09:03.253Z,388.12
2023-06-11T12:10:04.038Z,388.12
2023-06-11T12:11:04.255Z,382.50
2023-06-11T12:12:06.121Z,382.50
2023-06-11T12:13:04.206Z,382.50
2023-06-11T12:14:03.194Z,382.50
2023-06-11T12:15:03.208Z,382.50
2023-06-11T12:16:04.900Z,382.50
2023-06-11T12:17:04.412Z,382.50
2023-06-11T12:18:03.194Z,382.50
2023-06-11T12:19:18.712Z,382.50
2023-06-11T12:20:05.154Z,382.50
2023-06-11T12:21:03.164Z,382.50
2023-06-11T12:22:03.136Z,382.50
2023-06-11T12:23:03.132Z,382.50
2023-06-11T12:24:03.179Z,382.50
2023-06-11T12:25:03.182Z,382.50
2023-06-11T12:26:03.166Z,382.50
2023-06-11T12:27:06.482Z,382.50
2023-06-11T12:28:05.097Z,376.88
2023-06-11T12:29:03.087Z,376.88
2023-06-11T12:30:03.107Z,376.88
2023-06-11T12:31:03.064Z,376.88